Time;durP1;ratioP1;P1;durP2;ratioP2;P2;SDS_P1;SDS_P2;PMS_P1;PMS_P2;Temp;Humidity;BMP_temperature;BMP_pressure;BME280_temperature;BME280_humidity;BME280_pressure;Samples;Min_cycle;Max_cycle;Signal;HPM_P1;HPM_P2
2022/08/20 00:00:45;;;;;;;6.33;4.90;;;;;;;23.56;61.96;99400.53;6325274;28;20052;-72
2022/08/20 00:03:48;;;;;;;10.38;5.38;;;;;;;23.48;62.38;99406.81;6325202;28;20059;-72
2022/08/20 00:06:49;;;;;;;12.05;6.03;;;;;;;23.37;63.37;99414.50;6324955;28;20446;-72
2022/08/20 00:09:52;;;;;;;12.40;5.90;;;;;;;23.29;63.91;99410.97;6325594;28;20066;-71
2022/08/20 00:12:54;;;;;;;12.40;5.97;;;;;;;23.42;64.89;99425.41;6324213;28;20039;-71
2022/08/20 00:15:56;;;;;;;;;;;;;;;23.15;68.76;99422.50;6325829;28;20492;-72
2022/08/20 00:18:56;;;;;;;;;;;;;;;22.87;72.61;99423.19;6325828;28;20391;-71
2022/08/20 00:21:57;;;;;;;11.40;6.68;;;;;;;22.79;74.04;99431.31;6325231;28;19927;-71
2022/08/20 00:24:58;;;;;;;10.97;7.00;;;;;;;22.72;75.44;99427.75;6325104;28;20040;-71
2022/08/20 00:28:00;;;;;;;11.00;7.27;;;;;;;22.67;76.39;99427.47;6325080;28;20051;-71
2022/08/20 00:31:06;;;;;;;12.90;6.90;;;;;;;22.84;75.88;99426.25;6323642;28;20047;-72
2022/08/20 00:34:09;;;;;;;11.05;7.03;;;;;;;22.84;76.15;99426.25;6323847;28;20067;-71
2022/08/20 00:37:10;;;;;;;16.20;7.50;;;;;;;22.79;76.90;99425.16;6306855;28;20053;-71
2022/08/20 00:40:14;;;;;;;13.30;7.63;;;;;;;22.67;76.73;99419.50;6324693;28;20101;-71
2022/08/20 00:43:28;;;;;;;15.85;7.30;;;;;;;22.61;77.42;99402.50;6324841;28;20476;-72
2022/08/20 00:46:30;;;;;;;15.15;7.63;;;;;;;22.52;78.46;99399.09;6323502;28;20137;-71
2022/08/20 00:49:34;;;;;;;12.40;7.65;;;;;;;22.52;79.32;99400.94;6324057;28;20123;-72
2022/08/20 00:52:35;;;;;;;12.65;7.95;;;;;;;22.62;78.90;99390.81;6322769;28;20083;-72
2022/08/20 00:55:36;;;;;;;12.63;7.53;;;;;;;22.61;78.74;99378.56;6323329;28;20052;-72
2022/08/20 00:58:38;;;;;;;15.07;7.70;;;;;;;22.58;79.05;99362.97;6323300;28;20051;-72
2022/08/20 01:01:41;;;;;;;14.15;8.02;;;;;;;22.66;78.92;99356.72;6323102;28;20044;-71
2022/08/20 01:04:50;;;;;;;9.40;7.22;;;;;;;22.58;78.33;99339.03;6322874;28;20461;-72
2022/08/20 01:07:54;;;;;;;11.30;7.35;;;;;;;22.60;77.90;99336.22;6324160;28;20036;-72
2022/08/20 01:17:38;;;;;;;14.15;6.68;;;;;;;22.76;76.46;99314.69;6322697;28;20135;-71
2022/08/20 01:20:46;;;;;;;15.55;7.20;;;;;;;22.78;75.19;99320.63;6324133;28;20111;-72
2022/08/20 01:23:59;;;;;;;12.35;6.70;;;;;;;22.87;74.50;99322.13;6322452;28;20040;-72
2022/08/20 01:27:04;;;;;;;9.65;6.25;;;;;;;22.94;74.07;99315.06;6323687;28;20470;-72
2022/08/20 01:30:06;;;;;;;11.18;6.07;;;;;;;23.07;72.88;99310.88;6322292;28;20389;-73
2022/08/20 01:33:07;;;;;;;10.88;6.63;;;;;;;23.21;72.33;99311.81;6323593;28;20464;-71
2022/08/20 01:36:09;;;;;;;12.83;6.43;;;;;;;23.23;71.74;99312.44;6322313;28;20058;-71
2022/08/20 01:39:12;;;;;;;9.13;5.80;;;;;;;23.37;71.13;99311.53;6305136;28;20052;-71
2022/08/20 01:42:16;;;;;;;11.82;6.10;;;;;;;23.48;71.09;99305.66;6323009;28;20056;-72
2022/08/20 01:45:17;;;;;;;13.27;5.32;;;;;;;23.53;71.11;99297.91;6323324;28;20096;-72
2022/08/20 01:48:19;;;;;;;11.53;5.23;;;;;;;23.58;69.33;99302.63;6322329;28;20044;-73
2022/08/20 01:51:25;;;;;;;11.13;4.93;;;;;;;23.64;69.77;99304.50;6321930;28;20103;-74
2022/08/20 01:54:27;;;;;;;9.75;5.15;;;;;;;23.62;68.91;99303.06;6321908;28;20047;-72
2022/08/20 01:57:28;;;;;;;14.07;5.10;;;;;;;23.73;67.99;99307.84;6322966;28;20520;-72
2022/08/20 02:00:29;;;;;;;16.50;5.35;;;;;;;23.70;68.55;99305.53;6322991;28;20070;-72
2022/08/20 02:03:29;;;;;;;15.03;5.27;;;;;;;23.74;68.08;99304.13;6321761;28;20460;-71
2022/08/20 02:06:36;;;;;;;23.23;4.93;;;;;;;23.78;68.12;99312.59;6322844;28;20530;-72
2022/08/20 02:09:38;;;;;;;11.45;4.95;;;;;;;23.73;68.96;99308.66;6321609;28;20108;-72
2022/08/20 02:12:39;;;;;;;12.50;5.28;;;;;;;23.63;69.26;99305.53;6322570;28;20044;-72
2022/08/20 02:15:40;;;;;;;10.38;5.38;;;;;;;23.54;69.98;99296.06;6321339;28;20055;-72
2022/08/20 02:18:41;;;;;;;14.87;5.90;;;;;;;23.51;70.14;99299.94;6322539;28;20516;-72
2022/08/20 02:21:49;;;;;;;9.17;4.97;;;;;;;23.40;70.55;99297.81;6321201;28;20078;-72
2022/08/20 02:24:50;;;;;;;19.10;6.22;;;;;;;23.34;70.79;99298.59;6321145;28;20128;-72
2022/08/20 02:27:55;;;;;;;11.10;5.05;;;;;;;23.30;71.30;99297.34;6321066;28;20384;-72
2022/08/20 02:30:56;;;;;;;8.93;5.32;;;;;;;23.30;71.45;99292.00;6320965;28;20040;-72
2022/08/20 02:33:57;;;;;;;15.43;5.82;;;;;;;23.29;71.12;99303.69;6322082;28;20079;-72
2022/08/20 02:36:58;;;;;;;8.30;5.30;;;;;;;23.36;71.16;99296.56;6321948;28;20051;-71
2022/08/20 02:39:59;;;;;;;15.47;6.13;;;;;;;23.26;71.87;99286.25;6321847;28;20284;-72
2022/08/20 02:43:00;;;;;;;10.45;5.53;;;;;;;23.27;71.81;99292.41;6320683;28;20048;-71
2022/08/20 02:46:02;;;;;;;10.15;5.60;;;;;;;23.16;72.37;99293.75;6320602;28;20040;-72
2022/08/20 02:49:03;;;;;;;;;;;;;;;23.10;72.48;99287.38;6321186;28;20048;-73
2022/08/20 02:52:04;;;;;;;12.45;5.75;;;;;;;23.02;73.06;99281.38;6320735;28;19931;-73
2022/08/20 02:55:05;;;;;;;16.03;6.53;;;;;;;22.97;73.23;99286.44;6322026;28;20043;-72
2022/08/20 02:58:06;;;;;;;11.15;5.43;;;;;;;22.84;73.93;99268.53;6321945;28;20044;-71
2022/08/20 03:01:11;;;;;;;9.10;5.80;;;;;;;22.80;74.58;99284.03;6320509;28;20047;-71
2022/08/20 03:04:14;;;;;;;12.45;6.07;;;;;;;22.75;74.58;99289.09;6320684;28;20040;-71
2022/08/20 03:07:15;;;;;;;12.50;5.65;;;;;;;22.68;75.19;99281.06;6321894;28;20048;-71
2022/08/20 03:10:16;;;;;;;13.75;6.22;;;;;;;22.56;75.50;99285.25;6325786;28;20044;-72
2022/08/20 03:13:23;;;;;;;12.40;6.30;;;;;;;22.51;75.93;99290.31;6326910;28;20047;-72
2022/08/20 03:16:26;;;;;;;10.75;5.93;;;;;;;22.42;76.21;99286.94;6326814;28;20082;-72
2022/08/20 03:19:26;;;;;;;9.35;5.80;;;;;;;22.40;76.88;99285.50;6326876;28;20122;-72
2022/08/20 03:22:30;;;;;;;12.77;6.53;;;;;;;22.43;76.51;99282.47;6325378;28;20097;-72
2022/08/20 03:25:31;;;;;;;9.10;6.20;;;;;;;22.37;76.83;99276.06;6326693;28;20048;-72
2022/08/20 03:28:32;;;;;;;10.25;6.25;;;;;;;22.38;76.08;99279.53;6325403;28;20074;-71
2022/08/20 03:31:33;;;;;;;14.07;5.75;;;;;;;22.38;76.25;99267.06;6308219;28;20062;-72
2022/08/20 03:34:33;;;;;;;13.17;6.30;;;;;;;22.40;75.51;99267.69;6325293;28;20048;-72
2022/08/20 03:37:35;;;;;;;8.57;6.00;;;;;;;22.45;75.34;99254.69;6325527;28;20048;-71
2022/08/20 03:40:37;;;;;;;7.45;5.65;;;;;;;22.47;75.11;99254.50;6326258;28;20075;-71
2022/08/20 03:43:39;;;;;;;10.50;5.68;;;;;;;22.42;75.16;99243.59;6326357;28;20445;-71
2022/08/20 03:46:40;;;;;;;13.38;5.80;;;;;;;22.42;75.83;99241.75;6326208;28;20086;-71
2022/08/20 03:49:41;;;;;;;9.03;6.20;;;;;;;22.44;76.37;99229.09;6324998;28;20101;-71
2022/08/20 03:52:44;;;;;;;9.37;5.73;;;;;;;22.47;75.35;99225.25;6325600;28;20047;-73
2022/08/20 03:55:47;;;;;;;10.55;5.72;;;;;;;22.48;75.90;99230.38;6324422;28;20097;-72
2022/08/20 03:58:48;;;;;;;6.68;5.57;;;;;;;22.61;76.21;99226.19;6325855;28;20043;-72
2022/08/20 04:01:49;;;;;;;10.27;5.43;;;;;;;22.63;75.30;99219.69;6325808;28;20412;-72
2022/08/20 04:04:50;;;;;;;8.33;5.70;;;;;;;22.69;75.29;99210.94;6325873;28;20484;-72
2022/08/20 04:07:53;;;;;;;9.68;5.85;;;;;;;22.74;75.34;99205.03;6325668;28;20497;-73
2022/08/20 04:10:56;;;;;;;9.18;5.80;;;;;;;22.80;75.34;99195.47;6325562;28;20063;-72
2022/08/20 04:13:57;;;;;;;9.63;5.57;;;;;;;22.87;75.39;99196.31;6325423;28;20047;-72
2022/08/20 04:16:57;;;;;;;9.40;5.80;;;;;;;22.90;75.77;99194.09;6325501;28;20048;-72
2022/08/20 04:20:03;;;;;;;10.33;5.73;;;;;;;22.98;76.03;99201.13;6324015;28;20040;-71
2022/08/20 04:23:04;;;;;;;10.40;6.07;;;;;;;23.06;76.70;99203.66;6325167;28;20048;-72
2022/08/20 04:26:05;;;;;;;12.10;6.13;;;;;;;23.16;77.29;99213.94;6325088;28;20040;-72
2022/08/20 04:29:06;;;;;;;10.40;5.63;;;;;;;23.23;76.98;99216.66;6325032;28;20051;-72
2022/08/20 04:32:07;;;;;;;11.52;6.00;;;;;;;23.23;77.78;99219.31;6325295;28;20054;-71
2022/08/20 04:35:16;;;;;;;11.00;5.93;;;;;;;23.32;76.87;99226.09;6322729;28;20055;-72
2022/08/20 04:38:21;;;;;;;13.63;5.60;;;;;;;23.35;77.03;99220.41;6324267;28;20087;-72
2022/08/20 04:41:22;;;;;;;9.48;5.72;;;;;;;23.34;77.63;99234.72;6324111;28;20048;-71
2022/08/20 04:44:27;;;;;;;11.98;6.18;;;;;;;23.42;77.52;99229.22;6323874;28;20052;-72
2022/08/20 04:47:28;;;;;;;11.27;6.30;;;;;;;23.35;78.13;99225.72;6323007;28;20040;-72
2022/08/20 04:50:29;;;;;;;12.47;6.17;;;;;;;23.34;78.96;99226.72;6324585;28;20051;-71
2022/08/20 04:53:29;;;;;;;11.80;6.23;;;;;;;23.37;78.65;99229.00;6323634;28;20492;-71
2022/08/20 04:56:37;;;;;;;11.57;6.20;;;;;;;23.49;79.12;99235.44;6324688;28;20044;-71
2022/08/20 04:59:39;;;;;;;11.68;5.78;;;;;;;23.47;78.68;99232.13;6323187;28;20412;-72
2022/08/20 05:02:40;;;;;;;10.63;5.65;;;;;;;23.49;79.15;99231.91;6323717;28;20048;-71
2022/08/20 05:05:43;;;;;;;11.45;6.05;;;;;;;23.54;79.29;99235.63;6323303;28;20047;-74
2022/08/20 05:08:44;;;;;;;11.48;6.18;;;;;;;23.58;79.06;99244.06;6311807;28;20044;-72
2022/08/20 05:11:45;;;;;;;13.73;6.67;;;;;;;23.56;80.26;99246.09;6310163;28;20487;-71
2022/08/20 05:14:48;;;;;;;10.77;7.03;;;;;;;23.56;82.30;99251.41;6315801;28;20080;-70
2022/08/20 05:17:55;;;;;;;18.73;6.70;;;;;;;23.57;79.90;99254.91;6314961;28;20488;-71
2022/08/20 05:21:04;;;;;;;9.45;6.65;;;;;;;23.60;79.21;99265.16;6300391;28;20515;-74
2022/08/20 05:24:06;;;;;;;11.20;6.47;;;;;;;23.65;80.62;99276.84;6298015;28;20106;-74
2022/08/20 05:27:08;;;;;;;16.73;7.25;;;;;;;23.63;83.85;99281.56;6301758;28;20503;-71
2022/08/20 05:30:10;;;;;;;9.35;6.40;;;;;;;23.70;83.84;99279.75;6321300;28;20056;-74
2022/08/20 05:33:15;;;;;;;21.17;6.35;;;;;;;23.73;80.20;99268.69;6322900;28;20047;-72
2022/08/20 05:36:16;;;;;;;12.00;6.55;;;;;;;23.80;81.23;99263.41;6323036;28;20044;-75
2022/08/20 05:39:19;;;;;;;12.53;6.13;;;;;;;23.90;79.24;99255.06;6322691;28;20140;-73
2022/08/20 05:42:22;;;;;;;7.82;5.78;;;;;;;23.84;80.51;99258.53;6322253;28;20674;-74
2022/08/20 05:45:23;;;;;;;12.85;6.00;;;;;;;23.91;80.46;99260.19;6320576;28;20051;-74
2022/08/20 05:48:24;;;;;;;9.77;6.10;;;;;;;24.03;82.37;99252.47;6316258;28;20683;-72
2022/08/20 05:51:25;;;;;;;18.20;6.22;;;;;;;24.07;78.49;99252.88;6319861;28;20324;-74
2022/08/20 05:54:28;;;;;;;12.18;6.57;;;;;;;24.19;77.96;99258.44;6322176;28;20074;-73
2022/08/20 05:57:31;;;;;;;9.77;6.30;;;;;;;24.29;78.04;99257.03;6321944;28;20040;-73
2022/08/20 06:00:34;;;;;;;8.80;6.20;;;;;;;24.48;77.86;99267.91;6322080;28;20040;-72
2022/08/20 06:07:02;;;;;;;16.40;6.53;;;;;;;24.77;79.44;99292.59;6320675;28;20075;-73
2022/08/20 06:10:05;;;;;;;13.38;6.32;;;;;;;24.85;79.43;99301.25;6320887;28;20131;-71
2022/08/20 06:13:06;;;;;;;9.82;5.78;;;;;;;24.86;74.93;99313.53;6321690;28;20067;-72
2022/08/20 06:16:07;;;;;;;12.38;6.05;;;;;;;25.01;75.17;99315.19;6321213;28;20085;-72
2022/08/20 06:19:08;;;;;;;11.53;5.83;;;;;;;25.06;74.24;99323.38;6320973;28;20036;-72
2022/08/20 06:22:08;;;;;;;13.07;6.70;;;;;;;25.09;72.81;99329.13;6321975;28;20044;-72
2022/08/20 06:25:09;;;;;;;10.67;5.60;;;;;;;25.30;73.16;99321.97;6320679;28;20044;-73
2022/08/20 06:28:12;;;;;;;10.47;5.93;;;;;;;25.51;71.80;99343.13;6304180;28;20396;-72
2022/08/20 06:31:15;;;;;;;10.85;6.15;;;;;;;25.70;73.28;99346.78;6303587;28;20048;-72
2022/08/20 06:34:17;;;;;;;10.85;5.28;;;;;;;25.78;70.70;99348.41;6304107;28;20102;-72
2022/08/20 06:37:22;;;;;;;11.57;5.97;;;;;;;25.94;73.73;99357.81;6321237;28;20484;-72
2022/08/20 06:40:27;;;;;;;10.80;6.20;;;;;;;26.12;68.41;99344.59;6316920;28;20117;-71
2022/08/20 06:43:28;;;;;;;15.95;6.07;;;;;;;26.28;74.89;99353.19;6321265;28;20064;-71
2022/08/20 06:46:28;;;;;;;11.30;5.70;;;;;;;26.38;70.35;99356.22;6322153;28;20100;-72
2022/08/20 06:49:33;;;;;;;11.70;6.35;;;;;;;26.47;69.21;99360.25;6303991;28;20492;-72
2022/08/20 06:52:34;;;;;;;11.18;5.70;;;;;;;26.62;66.23;99357.31;6320818;28;20043;-72
2022/08/20 06:55:37;;;;;;;10.85;5.65;;;;;;;26.70;66.73;99361.59;6321801;28;20044;-72
2022/08/20 06:58:38;;;;;;;9.48;5.70;;;;;;;26.73;65.58;99362.00;6303722;28;20415;-73
2022/08/20 07:01:39;;;;;;;10.57;5.85;;;;;;;26.93;66.20;99367.22;6320187;28;20640;-73
2022/08/20 07:04:40;;;;;;;9.52;5.95;;;;;;;26.78;67.75;99350.66;6312322;28;20052;-73
2022/08/20 07:07:46;;;;;;;12.05;5.70;;;;;;;26.91;67.71;99339.88;6320216;28;20051;-73
2022/08/20 07:10:47;;;;;;;12.45;5.40;;;;;;;27.23;65.31;99339.81;6321273;28;20400;-73
2022/08/20 07:13:48;;;;;;;11.15;5.47;;;;;;;27.41;63.25;99336.38;6319794;28;20063;-71
2022/08/20 07:16:49;;;;;;;11.45;5.63;;;;;;;27.66;63.97;99351.59;6303492;28;20056;-71
2022/08/20 07:19:50;;;;;;;9.20;5.72;;;;;;;27.90;62.35;99347.22;6314288;28;20099;-71
2022/08/20 07:22:51;;;;;;;10.38;5.45;;;;;;;27.71;61.29;99349.03;6277646;28;20060;-73
2022/08/20 07:25:54;;;;;;;8.38;5.40;;;;;;;27.80;61.41;99358.44;6305702;28;20040;-73
2022/08/20 07:28:57;;;;;;;13.80;5.72;;;;;;;27.95;61.64;99360.78;6295537;28;20101;-73
2022/08/20 07:35:20;;;;;;;8.20;4.93;;;;;;;27.86;61.05;99348.66;6295504;28;20400;-72
2022/08/20 07:38:25;;;;;;;9.10;5.25;;;;;;;27.68;63.30;99350.31;6295262;28;20044;-72
2022/08/20 07:41:26;;;;;;;9.73;5.30;;;;;;;28.10;62.19;99344.28;6307382;28;20052;-73
2022/08/20 07:44:29;;;;;;;8.80;4.90;;;;;;;28.49;59.46;99339.44;6315366;28;20047;-73
2022/08/20 07:47:29;;;;;;;18.35;5.55;;;;;;;28.67;58.27;99334.06;6295449;28;20136;-73
2022/08/20 07:50:31;;;;;;;11.48;5.60;;;;;;;28.83;58.33;99339.81;6295773;28;20046;-73
2022/08/20 07:53:34;;;;;;;12.02;4.93;;;;;;;29.05;57.40;99323.97;6294178;28;20504;-71
2022/08/20 07:56:37;;;;;;;9.00;5.53;;;;;;;29.09;60.12;99322.44;6299171;28;20576;-71
2022/08/20 07:59:38;;;;;;;10.65;4.72;;;;;;;29.37;56.73;99323.66;6300270;28;20114;-73
2022/08/20 08:02:38;;;;;;;11.43;5.78;;;;;;;29.21;55.06;99327.88;6298449;28;20718;-71
2022/08/20 08:05:42;;;;;;;8.23;5.18;;;;;;;29.36;57.24;99320.13;6299284;28;20466;-71
2022/08/20 08:08:43;;;;;;;10.48;5.45;;;;;;;29.38;57.86;99322.59;6299349;28;20040;-73
2022/08/20 08:11:50;;;;;;;8.38;5.20;;;;;;;29.57;59.59;99331.34;6298830;28;20040;-74
2022/08/20 08:14:51;;;;;;;9.45;4.68;;;;;;;29.60;55.56;99329.00;6313421;28;20468;-71
2022/08/20 08:17:55;;;;;;;9.38;5.28;;;;;;;29.71;55.31;99316.63;6323228;28;20048;-71
2022/08/20 08:20:56;;;;;;;12.68;5.50;;;;;;;29.79;57.31;99315.44;6323450;28;20127;-72
2022/08/20 08:24:01;;;;;;;12.15;5.00;;;;;;;30.07;53.42;99309.28;6324790;28;20043;-72
2022/08/20 08:27:02;;;;;;;8.68;4.90;;;;;;;30.05;53.13;99301.47;6324387;28;20403;-72
2022/08/20 08:30:06;;;;;;;6.20;5.13;;;;;;;30.04;58.46;99302.53;6322736;28;20416;-73
2022/08/20 08:33:29;;;;;;;11.38;5.10;;;;;;;29.98;54.84;99299.97;6322612;28;20097;-73
2022/08/20 08:36:30;;;;;;;7.82;5.25;;;;;;;29.79;53.20;99296.63;6324571;28;20044;-74
2022/08/20 08:39:32;;;;;;;11.80;5.57;;;;;;;29.87;61.15;99296.25;6323346;28;20051;-74
2022/08/20 08:42:47;;;;;;;9.98;5.18;;;;;;;29.93;61.31;99287.22;6322916;28;20040;-73
2022/08/20 08:46:09;;;;;;;9.65;5.13;;;;;;;29.95;53.65;99284.31;6322615;28;20060;-73
2022/08/20 08:49:15;;;;;;;12.00;4.88;;;;;;;30.13;55.21;99279.56;6323003;28;20499;-73
2022/08/20 08:52:19;;;;;;;13.82;5.22;;;;;;;30.29;56.87;99277.13;6321294;28;20749;-73
2022/08/20 08:55:21;;;;;;;10.75;5.30;;;;;;;30.34;54.19;99277.28;6322994;28;20075;-73
2022/08/20 08:58:22;;;;;;;10.32;5.20;;;;;;;30.65;51.36;99272.41;6324222;28;20048;-73
2022/08/20 09:01:27;;;;;;;9.80;5.32;;;;;;;31.11;48.78;99273.13;6305840;28;20059;-73
2022/08/20 09:04:33;;;;;;;12.18;5.18;;;;;;;31.30;47.71;99265.63;6321933;28;20063;-73
2022/08/20 09:07:36;;;;;;;7.55;4.63;;;;;;;31.53;49.79;99273.50;6323105;28;20044;-73
2022/08/20 09:10:41;;;;;;;14.07;5.47;;;;;;;31.66;52.52;99271.47;6324239;28;20443;-73
2022/08/20 09:13:42;;;;;;;12.00;5.03;;;;;;;31.70;46.89;99264.53;6323147;28;20047;-73
2022/08/20 09:16:42;;;;;;;9.27;4.80;;;;;;;31.82;48.65;99267.09;6322656;28;20051;-73
2022/08/20 09:19:44;;;;;;;7.10;4.70;;;;;;;31.85;45.54;99258.47;6304939;28;20105;-72
2022/08/20 09:22:45;;;;;;;10.77;5.03;;;;;;;32.00;45.85;99257.84;6305379;28;20064;-73
2022/08/20 09:25:49;;;;;;;;;;;;;;;32.20;43.67;99241.88;6322767;28;20102;-73
2022/08/20 09:28:50;;;;;;;9.70;4.40;;;;;;;32.35;43.24;99249.31;6305720;28;19927;-73
2022/08/20 09:32:01;;;;;;;;;;;;;;;32.72;43.80;99252.09;6306290;28;20048;-72
2022/08/20 09:35:02;;;;;;;;;;;;;;;32.85;42.77;99266.22;6322501;28;19927;-72
2022/08/20 09:38:06;;;;;;;5.55;4.63;;;;;;;33.15;44.38;99262.09;6322970;28;19920;-72
2022/08/20 09:41:06;;;;;;;7.35;4.30;;;;;;;33.49;43.98;99268.78;6322999;28;20099;-73
2022/08/20 09:44:07;;;;;;;;;;;;;;;33.60;43.93;99282.34;6305561;28;20393;-74
2022/08/20 09:47:08;;;;;;;10.20;4.30;;;;;;;33.61;40.97;99276.69;6321777;28;19924;-73
2022/08/20 09:50:09;;;;;;;8.82;4.30;;;;;;;33.85;40.26;99271.66;6296740;28;20052;-73
2022/08/20 09:53:10;;;;;;;11.00;4.40;;;;;;;34.11;40.18;99282.53;6296993;28;20110;-74
2022/08/20 09:56:14;;;;;;;6.68;4.13;;;;;;;33.93;40.48;99294.66;6286475;28;20052;-72
2022/08/20 09:59:15;;;;;;;12.23;4.40;;;;;;;34.19;41.11;99301.00;6322062;28;20044;-72
2022/08/20 10:02:15;;;;;;;6.40;4.20;;;;;;;34.35;42.55;99306.41;6304793;28;20097;-72
2022/08/20 10:05:16;;;;;;;7.13;4.20;;;;;;;34.63;40.12;99305.91;6321664;28;20075;-72
2022/08/20 10:08:17;;;;;;;9.25;4.50;;;;;;;34.69;41.90;99304.03;6322888;28;20044;-73
2022/08/20 10:11:18;;;;;;;8.52;4.72;;;;;;;34.75;36.39;99302.97;6321641;28;20052;-73
2022/08/20 10:14:19;;;;;;;6.82;4.20;;;;;;;34.82;38.79;99313.50;6323005;28;20047;-73
2022/08/20 10:17:19;;;;;;;10.07;4.30;;;;;;;35.06;36.72;99311.88;6321094;28;20500;-72
2022/08/20 10:20:20;;;;;;;9.40;4.43;;;;;;;35.21;37.18;99307.53;6293303;28;20048;-72
2022/08/20 10:23:21;;;;;;;13.30;4.30;;;;;;;34.93;38.41;99307.03;6296362;28;20055;-72
2022/08/20 10:26:22;;;;;;;9.02;4.20;;;;;;;34.98;42.94;99307.00;6296026;28;20044;-72
2022/08/20 10:29:24;;;;;;;8.52;4.55;;;;;;;35.32;37.74;99298.31;6279267;28;20579;-73
2022/08/20 10:32:25;;;;;;;7.25;4.18;;;;;;;35.56;35.19;99294.97;6297382;28;20381;-72
2022/08/20 10:35:29;;;;;;;8.70;4.35;;;;;;;35.68;34.26;99290.88;6279140;28;20056;-73
2022/08/20 10:38:32;;;;;;;8.98;4.97;;;;;;;35.02;34.40;99282.88;6296693;28;20461;-73
2022/08/20 10:41:32;;;;;;;7.78;3.88;;;;;;;34.27;35.88;99275.28;6295778;28;20045;-74
2022/08/20 10:44:33;;;;;;;6.90;4.15;;;;;;;34.29;35.85;99252.28;6314502;28;20456;-73
2022/08/20 10:47:34;;;;;;;7.55;4.38;;;;;;;34.62;34.82;99252.81;6303500;28;20070;-73
2022/08/20 10:50:35;;;;;;;7.07;4.50;;;;;;;34.44;34.61;99264.19;6320733;28;20403;-73
2022/08/20 10:53:36;;;;;;;12.65;4.10;;;;;;;34.69;34.77;99258.81;6303484;28;20051;-73
2022/08/20 10:56:36;;;;;;;10.10;3.90;;;;;;;35.29;34.53;99263.59;6319793;28;20071;-73
2022/08/20 10:59:42;;;;;;;9.98;4.47;;;;;;;35.74;34.95;99248.25;6320533;28;20044;-73
2022/08/20 11:02:45;;;;;;;8.75;4.30;;;;;;;35.86;31.94;99250.63;6319922;28;20499;-73
2022/08/20 11:05:47;;;;;;;8.07;4.28;;;;;;;35.77;32.39;99241.44;6320124;28;20060;-73
2022/08/20 11:08:47;;;;;;;9.70;4.50;;;;;;;35.84;31.90;99236.53;6321464;28;20036;-73
2022/08/20 11:11:48;;;;;;;6.90;3.80;;;;;;;35.67;33.87;99229.56;6321755;28;20086;-73
2022/08/20 11:14:50;;;;;;;9.25;4.13;;;;;;;34.92;35.96;99237.63;6321712;28;20071;-73
2022/08/20 11:17:51;;;;;;;7.90;4.00;;;;;;;34.39;34.50;99242.53;6317352;28;20040;-74
2022/08/20 11:20:52;;;;;;;141.80;10.10;;;;;;;32.94;43.33;99240.34;6303498;28;20052;-72
2022/08/20 11:23:52;;;;;;;80.68;8.13;;;;;;;31.92;48.10;99268.00;6320284;28;20063;-73
2022/08/20 11:26:53;;;;;;;;;;;;;;;31.08;51.33;99265.56;6303031;28;20131;-72
2022/08/20 11:29:54;;;;;;;97.22;8.15;;;;;;;30.57;52.90;99260.16;6322700;28;19920;-72
2022/08/20 11:32:56;;;;;;;92.03;7.05;;;;;;;30.22;52.47;99284.56;6326066;28;20048;-72
2022/08/20 11:36:00;;;;;;;76.88;5.80;;;;;;;30.66;51.26;99301.78;6325110;28;20055;-73
2022/08/20 11:39:01;;;;;;;41.58;4.82;;;;;;;29.98;52.36;99305.34;6326253;28;20040;-73
2022/08/20 11:42:02;;;;;;;54.53;5.28;;;;;;;30.30;50.59;99311.91;6307064;28;20055;-73
2022/08/20 11:45:03;;;;;;;40.47;4.40;;;;;;;30.30;50.32;99319.97;6300539;28;20066;-72
2022/08/20 11:48:04;;;;;;;54.13;6.22;;;;;;;30.56;49.45;99317.75;6306777;28;20055;-72
2022/08/20 11:51:05;;;;;;;36.67;4.35;;;;;;;30.75;48.17;99312.97;6323496;28;20123;-73
2022/08/20 11:54:06;;;;;;;38.70;5.43;;;;;;;30.68;48.14;99321.22;6323545;28;20480;-73
2022/08/20 11:57:07;;;;;;;34.65;5.05;;;;;;;30.37;47.78;99319.81;6324139;28;20484;-72
2022/08/20 12:00:13;;;;;;;18.30;4.25;;;;;;;30.49;47.42;99334.03;6324048;28;20036;-73
2022/08/20 12:03:14;;;;;;;19.33;4.18;;;;;;;31.02;45.08;99342.78;6324049;28;20044;-74
2022/08/20 12:06:15;;;;;;;17.27;3.25;;;;;;;30.47;46.70;99332.66;6324981;28;20117;-72
2022/08/20 12:09:17;;;;;;;29.45;4.03;;;;;;;30.29;47.61;99339.00;6306760;28;20492;-72
2022/08/20 12:12:21;;;;;;;23.23;4.60;;;;;;;30.37;47.83;99332.47;6325012;28;20037;-72
2022/08/20 12:15:22;;;;;;;16.90;4.18;;;;;;;30.01;47.74;99337.97;6325515;28;20040;-73
2022/08/20 12:18:23;;;;;;;;;;;;;;;30.39;47.50;99322.28;6324045;28;20568;-73
2022/08/20 12:21:24;;;;;;;16.13;4.00;;;;;;;30.04;48.39;99339.34;6323704;28;19920;-72
2022/08/20 12:24:25;;;;;;;14.95;4.70;;;;;;;29.87;48.63;99336.59;6319984;28;20118;-72
2022/08/20 12:27:28;;;;;;;20.65;4.78;;;;;;;30.00;48.65;99346.25;6305875;28;20492;-73
2022/08/20 12:30:30;;;;;;;12.93;3.63;;;;;;;30.36;47.66;99347.00;6322626;28;20052;-73
2022/08/20 12:33:31;;;;;;;14.52;4.72;;;;;;;30.97;45.45;99355.34;6323045;28;20048;-73
2022/08/20 12:36:32;;;;;;;14.45;3.40;;;;;;;31.01;44.57;99354.63;6322715;28;20131;-73
2022/08/20 12:39:34;;;;;;;14.32;3.88;;;;;;;30.40;43.74;99351.66;6323366;28;20119;-73
2022/08/20 12:42:37;;;;;;;19.52;3.00;;;;;;;29.97;44.57;99365.56;6321415;28;20078;-72
2022/08/20 12:45:38;;;;;;;12.77;3.00;;;;;;;29.93;44.50;99357.16;6323312;28;20597;-72
2022/08/20 12:48:39;;;;;;;15.27;3.55;;;;;;;30.18;43.90;99383.75;6322281;28;20045;-72
2022/08/20 12:51:42;;;;;;;13.27;2.58;;;;;;;30.30;43.71;99383.75;6305168;28;20157;-73
2022/08/20 12:54:45;;;;;;;11.07;3.22;;;;;;;30.05;43.05;99375.97;6323526;28;20044;-73
2022/08/20 12:57:52;;;;;;;10.93;2.80;;;;;;;30.20;42.27;99387.00;6304770;28;20073;-73
2022/08/20 13:00:53;;;;;;;21.27;3.10;;;;;;;30.21;42.01;99385.97;6296259;28;20554;-72
2022/08/20 13:03:54;;;;;;;12.30;2.50;;;;;;;29.98;42.53;99394.91;6296727;28;20056;-72
2022/08/20 13:07:00;;;;;;;11.30;2.90;;;;;;;29.92;43.62;99391.28;6307885;28;20389;-72
2022/08/20 13:10:04;;;;;;;12.55;2.65;;;;;;;30.01;42.68;99390.94;6297515;28;20054;-72
2022/08/20 13:13:04;;;;;;;11.73;2.78;;;;;;;29.84;41.70;99390.84;6280010;28;20053;-72
2022/08/20 13:16:05;;;;;;;10.32;2.72;;;;;;;29.56;41.96;99391.53;6316849;28;20048;-72
2022/08/20 13:19:08;;;;;;;11.10;2.70;;;;;;;29.42;42.81;99381.00;6322837;28;20119;-72
2022/08/20 13:22:10;;;;;;;8.68;2.60;;;;;;;29.31;42.84;99384.50;6304153;28;20411;-72
2022/08/20 13:25:12;;;;;;;7.82;2.50;;;;;;;29.37;43.07;99380.91;6322656;28;20044;-71
2022/08/20 13:28:13;;;;;;;13.50;2.83;;;;;;;29.29;42.82;99382.06;6322203;28;20040;-71
2022/08/20 13:31:13;;;;;;;5.93;2.58;;;;;;;29.33;43.17;99377.84;6321258;28;20452;-71
2022/08/20 13:34:14;;;;;;;7.35;2.58;;;;;;;29.19;43.71;99389.06;6321470;28;20125;-71
2022/08/20 13:37:19;;;;;;;8.57;2.92;;;;;;;29.01;44.42;99389.91;6320840;28;20060;-71
2022/08/20 13:40:20;;;;;;;7.20;2.58;;;;;;;28.94;45.28;99404.25;6322626;28;20048;-71
2022/08/20 13:43:21;;;;;;;7.30;2.75;;;;;;;28.64;45.59;99412.34;6321562;28;20060;-72
2022/08/20 13:46:22;;;;;;;6.38;2.63;;;;;;;28.66;45.71;99422.84;6320945;28;20127;-73
2022/08/20 13:49:23;;;;;;;6.65;1.98;;;;;;;28.52;44.71;99422.22;6322219;28;20040;-72
2022/08/20 13:52:24;;;;;;;4.95;2.00;;;;;;;28.49;44.42;99431.53;6320223;28;20056;-72
2022/08/20 13:55:26;;;;;;;5.88;2.00;;;;;;;28.53;44.63;99430.03;6304150;28;20079;-73
2022/08/20 13:58:27;;;;;;;6.15;2.05;;;;;;;28.59;45.32;99440.91;6320328;28;20071;-72
2022/08/20 14:01:28;;;;;;;13.20;2.22;;;;;;;28.60;45.24;99426.44;6320259;28;20441;-71
2022/08/20 14:04:29;;;;;;;6.55;2.20;;;;;;;28.61;44.48;99428.09;6321697;28;20040;-71
2022/08/20 14:07:32;;;;;;;5.13;1.98;;;;;;;28.63;43.95;99420.63;6321588;28;20119;-71
2022/08/20 14:10:34;;;;;;;9.65;2.10;;;;;;;28.98;44.14;99438.72;6321786;28;20113;-71
2022/08/20 14:13:34;;;;;;;8.27;2.08;;;;;;;28.85;45.17;99424.44;6321710;28;20491;-72
2022/08/20 14:16:36;;;;;;;3.95;1.80;;;;;;;28.92;42.11;99421.66;6320545;28;20052;-71
2022/08/20 14:19:38;;;;;;;11.75;2.03;;;;;;;28.85;42.57;99411.03;6320665;28;20036;-71
2022/08/20 14:22:42;;;;;;;12.18;1.88;;;;;;;28.86;43.84;99401.09;6303793;28;20055;-71
2022/08/20 14:25:45;;;;;;;3.28;1.50;;;;;;;28.87;43.18;99382.09;6321804;28;20120;-71